createdAt,value
2022-10-17T00:00:18.792Z,99.99
2022-10-17T00:01:18.807Z,99.99
2022-10-17T00:02:18.796Z,99.99
2022-10-17T00:03:18.784Z,99.99
2022-10-17T00:04:18.776Z,99.99
2022-10-17T00:05:18.780Z,99.99
2022-10-17T00:06:18.775Z,99.99
2022-10-17T00:07:18.801Z,99.99
2022-10-17T00:08:18.776Z,99.99
2022-10-17T00:09:18.773Z,99.99
2022-10-17T00:10:18.771Z,99.99
2022-10-17T00:11:18.774Z,99.99
2022-10-17T00:12:18.808Z,99.99
2022-10-17T00:13:18.772Z,99.99
2022-10-17T00:14:18.778Z,99.99
2022-10-17T00:15:18.764Z,99.99
2022-10-17T00:16:18.758Z,99.99
2022-10-17T00:17:18.755Z,99.99
2022-10-17T00:18:18.767Z,99.99
2022-10-17T00:19:18.746Z,99.99
2022-10-17T00:20:18.746Z,99.99
2022-10-17T00:21:18.757Z,99.99
2022-10-17T00:22:18.757Z,99.99
2022-10-17T00:23:18.777Z,99.99
2022-10-17T00:24:18.763Z,99.99
2022-10-17T00:25:18.779Z,99.99
2022-10-17T00:26:18.772Z,99.99
2022-10-17T00:27:18.776Z,99.99
2022-10-17T00:28:18.778Z,99.99
2022-10-17T00:29:18.787Z,99.99
2022-10-17T00:30:18.759Z,99.99
2022-10-17T00:31:18.758Z,99.99
2022-10-17T00:32:18.755Z,99.99
2022-10-17T00:33:18.772Z,99.99
2022-10-17T00:34:18.765Z,99.99
2022-10-17T00:35:18.762Z,99.99
2022-10-17T00:36:18.774Z,99.99
2022-10-17T00:37:18.752Z,99.99
2022-10-17T00:38:18.776Z,99.99
2022-10-17T00:39:18.757Z,99.99
2022-10-17T00:40:18.752Z,99.99
2022-10-17T00:41:18.781Z,99.99
2022-10-17T00:42:18.747Z,99.99
2022-10-17T00:43:18.751Z,99.99
2022-10-17T00:44:18.750Z,99.99
2022-10-17T00:45:18.776Z,99.99
2022-10-17T00:46:18.758Z,99.99
2022-10-17T00:47:18.760Z,99.99
2022-10-17T00:48:22.499Z,99.99
2022-10-17T00:49:18.789Z,99.99
2022-10-17T00:50:18.789Z,99.99
2022-10-17T00:51:18.759Z,99.99
2022-10-17T00:52:18.758Z,99.99
2022-10-17T00:53:18.766Z,99.99
2022-10-17T00:54:18.782Z,99.99
2022-10-17T00:55:18.775Z,99.99
2022-10-17T00:56:18.814Z,99.99
2022-10-17T00:57:18.788Z,99.99
2022-10-17T00:58:18.789Z,99.99
2022-10-17T00:59:18.804Z,99.99
2022-10-17T01:00:18.807Z,99.99
2022-10-17T01:01:18.870Z,99.99
2022-10-17T01:02:18.852Z,99.99
2022-10-17T01:03:18.831Z,99.99
2022-10-17T01:04:18.835Z,99.99
2022-10-17T01:05:18.884Z,99.99
2022-10-17T01:06:18.845Z,99.99
2022-10-17T01:07:18.854Z,99.99
2022-10-17T01:08:18.856Z,99.99
2022-10-17T01:09:18.858Z,99.99
2022-10-17T01:10:18.944Z,99.99
2022-10-17T01:11:18.886Z,99.99
2022-10-17T01:12:18.893Z,99.99
2022-10-17T01:13:18.870Z,99.99
2022-10-17T01:14:18.867Z,99.99
2022-10-17T01:15:18.872Z,99.99
2022-10-17T01:16:18.879Z,99.99
2022-10-17T01:17:18.876Z,99.99
2022-10-17T01:18:18.908Z,99.99
2022-10-17T01:19:18.918Z,99.99
2022-10-17T01:20:18.901Z,99.99
2022-10-17T01:21:18.911Z,99.99
2022-10-17T01:22:18.915Z,99.99
2022-10-17T01:23:18.961Z,99.99
2022-10-17T01:24:18.935Z,99.99
2022-10-17T01:25:18.940Z,99.99
2022-10-17T01:26:18.943Z,99.99
2022-10-17T01:27:18.952Z,99.99
2022-10-17T01:28:18.983Z,99.99
2022-10-17T01:29:18.971Z,99.99
2022-10-17T01:30:18.970Z,99.99
2022-10-17T01:31:19.003Z,99.99
2022-10-17T01:32:18.991Z,99.99
2022-10-17T01:33:19.027Z,99.99
2022-10-17T01:34:19.043Z,99.99
2022-10-17T01:35:19.038Z,99.99
2022-10-17T01:36:19.056Z,99.99
2022-10-17T01:37:19.095Z,99.99
2022-10-17T01:38:19.075Z,99.99
2022-10-17T01:39:19.117Z,99.99
2022-10-17T01:40:19.121Z,99.99
2022-10-17T01:41:19.104Z,99.99
2022-10-17T01:42:19.114Z,99.99
2022-10-17T01:43:19.123Z,99.99
2022-10-17T01:44:19.140Z,99.99
2022-10-17T01:45:19.181Z,99.99
2022-10-17T01:46:19.177Z,99.99
2022-10-17T01:47:19.174Z,99.99
2022-10-17T01:48:19.179Z,99.99
2022-10-17T01:49:19.193Z,99.99
2022-10-17T01:50:19.203Z,99.99
2022-10-17T01:51:19.248Z,99.99
2022-10-17T01:52:19.234Z,99.99
2022-10-17T01:53:19.264Z,99.99
2022-10-17T01:54:19.259Z,99.99
2022-10-17T01:55:19.271Z,99.99
2022-10-17T01:56:19.289Z,99.99
2022-10-17T01:57:19.304Z,99.99
2022-10-17T01:58:19.356Z,99.99
2022-10-17T01:59:19.340Z,99.99
2022-10-17T02:00:19.358Z,99.99
2022-10-17T02:01:19.425Z,99.99
2022-10-17T02:02:19.389Z,99.99
2022-10-17T02:03:19.423Z,99.99
2022-10-17T02:04:19.416Z,99.99
2022-10-17T02:05:19.436Z,99.99
2022-10-17T02:06:19.441Z,99.99
2022-10-17T02:07:19.452Z,99.99
2022-10-17T02:08:19.489Z,99.99
2022-10-17T02:09:19.490Z,99.99
2022-10-17T02:10:19.483Z,99.99
2022-10-17T02:11:19.488Z,99.99
2022-10-17T02:12:19.504Z,99.99
2022-10-17T02:13:19.516Z,99.99
2022-10-17T02:14:19.556Z,99.99
2022-10-17T02:15:19.545Z,99.99
2022-10-17T02:16:19.568Z,99.99
2022-10-17T02:17:19.579Z,99.99
2022-10-17T02:18:19.624Z,99.99
2022-10-17T02:19:19.613Z,99.99
2022-10-17T02:20:19.629Z,99.99
2022-10-17T02:21:19.669Z,99.99
2022-10-17T02:22:19.662Z,99.99
2022-10-17T02:24:19.691Z,99.99
2022-10-17T02:25:19.702Z,99.99
2022-10-17T02:26:19.742Z,99.99
2022-10-17T02:27:19.766Z,99.99
2022-10-17T02:28:19.752Z,99.99
2022-10-17T02:29:19.760Z,99.99
2022-10-17T02:30:19.769Z,99.99
2022-10-17T02:31:19.783Z,99.99
2022-10-17T02:32:22.906Z,99.99
2022-10-17T02:33:19.811Z,99.99
2022-10-17T02:34:19.831Z,99.99
2022-10-17T02:35:19.846Z,99.99
2022-10-17T02:36:19.865Z,99.99
2022-10-17T02:37:19.934Z,99.99
2022-10-17T02:38:19.924Z,99.99
2022-10-17T02:39:19.917Z,99.99
2022-10-17T02:40:19.969Z,99.99
2022-10-17T02:41:19.964Z,99.99
2022-10-17T02:42:19.991Z,99.99
2022-10-17T02:43:20.008Z,99.99
2022-10-17T02:44:20.006Z,99.99
2022-10-17T02:45:20.021Z,99.99
2022-10-17T02:46:20.045Z,99.99
2022-10-17T02:47:20.097Z,99.99
2022-10-17T02:48:20.085Z,99.99
2022-10-17T02:49:20.100Z,99.99
2022-10-17T02:50:20.164Z,99.99
2022-10-17T02:51:20.135Z,99.99
2022-10-17T02:52:20.176Z,99.99
2022-10-17T02:53:20.169Z,99.99
2022-10-17T02:54:20.221Z,99.99
2022-10-17T02:55:20.203Z,99.99
2022-10-17T02:56:20.244Z,99.99
2022-10-17T02:57:20.239Z,99.99
2022-10-17T02:58:20.280Z,99.99
2022-10-17T02:59:20.398Z,99.99
2022-10-17T03:00:20.288Z,99.99
2022-10-17T03:01:20.382Z,99.99
2022-10-17T03:02:20.310Z,99.99
2022-10-17T03:03:20.343Z,99.99
2022-10-17T03:04:20.330Z,99.99
2022-10-17T03:05:20.337Z,99.99
2022-10-17T03:06:20.353Z,99.99
2022-10-17T03:07:20.360Z,99.99
2022-10-17T03:08:20.398Z,99.99
2022-10-17T03:09:20.426Z,99.99
2022-10-17T03:10:20.401Z,99.99
2022-10-17T03:11:20.410Z,99.99
2022-10-17T03:12:20.463Z,99.99
2022-10-17T03:13:20.432Z,99.99
2022-10-17T03:14:20.470Z,99.99
2022-10-17T03:15:20.472Z,99.99
2022-10-17T03:16:20.473Z,99.99
2022-10-17T03:17:20.508Z,99.99
2022-10-17T03:18:20.497Z,99.99
2022-10-17T03:19:20.504Z,99.99
2022-10-17T03:20:20.545Z,99.99
2022-10-17T03:21:20.534Z,99.99
2022-10-17T03:22:20.552Z,99.99
2022-10-17T03:23:20.578Z,99.99
2022-10-17T03:24:20.599Z,99.99
2022-10-17T03:25:20.646Z,99.99
2022-10-17T03:26:20.668Z,99.99
2022-10-17T03:27:20.662Z,99.99
2022-10-17T03:28:20.801Z,99.99
2022-10-17T03:29:20.710Z,99.99
2022-10-17T03:30:20.737Z,99.99
2022-10-17T03:31:20.757Z,99.99
2022-10-17T03:32:20.783Z,99.99
2022-10-17T03:33:20.825Z,99.99
2022-10-17T03:34:20.826Z,99.99
2022-10-17T03:35:20.849Z,99.99
2022-10-17T03:36:20.887Z,99.99
2022-10-17T03:37:20.926Z,99.99
2022-10-17T03:38:20.911Z,99.99
2022-10-17T03:39:20.922Z,99.99
2022-10-17T03:40:20.949Z,99.99
2022-10-17T03:41:20.960Z,99.99
2022-10-17T03:42:21.013Z,99.99
2022-10-17T03:43:21.001Z,99.99
2022-10-17T03:44:21.023Z,99.99
2022-10-17T03:45:21.034Z,99.99
2022-10-17T03:46:21.057Z,99.99
2022-10-17T03:47:21.092Z,99.99
2022-10-17T03:48:21.091Z,99.99
2022-10-17T03:49:21.100Z,99.99
2022-10-17T03:50:21.146Z,99.99
2022-10-17T03:51:21.134Z,99.99
2022-10-17T03:52:21.162Z,99.99
2022-10-17T03:53:21.205Z,99.99
2022-10-17T03:54:21.202Z,99.99
2022-10-17T03:55:21.202Z,99.99
2022-10-17T03:56:21.213Z,99.99
2022-10-17T03:57:21.220Z,99.99
2022-10-17T03:58:21.258Z,99.99
2022-10-17T03:59:21.247Z,99.99
2022-10-17T04:00:21.279Z,99.99
2022-10-17T04:01:21.359Z,99.99
2022-10-17T04:02:21.299Z,99.99
2022-10-17T04:03:21.325Z,99.99
2022-10-17T04:04:21.318Z,99.99
2022-10-17T04:05:21.334Z,99.99
2022-10-17T04:06:21.353Z,99.99
2022-10-17T04:07:21.416Z,99.99
2022-10-17T04:08:21.409Z,99.99
2022-10-17T04:09:21.414Z,99.99
2022-10-17T04:10:21.419Z,99.99
2022-10-17T04:11:21.429Z,99.99
2022-10-17T04:12:21.453Z,99.99
2022-10-17T04:13:21.459Z,99.99
2022-10-17T04:14:21.512Z,99.99
2022-10-17T04:15:21.504Z,99.99
2022-10-17T04:16:21.521Z,99.99
2022-10-17T04:17:21.545Z,99.99
2022-10-17T04:18:21.569Z,99.99
2022-10-17T04:19:21.608Z,99.99
2022-10-17T04:20:21.613Z,99.99
2022-10-17T04:21:21.625Z,99.99
2022-10-17T04:22:21.647Z,99.99
2022-10-17T04:23:21.672Z,99.99
2022-10-17T04:24:21.717Z,99.99
2022-10-17T04:25:21.726Z,99.99
2022-10-17T04:26:21.729Z,99.99
2022-10-17T04:27:21.750Z,99.99
2022-10-17T04:28:21.898Z,99.99
2022-10-17T04:29:21.791Z,99.99
2022-10-17T04:30:21.839Z,99.99
2022-10-17T04:31:21.850Z,99.99
2022-10-17T04:32:21.950Z,99.99
2022-10-17T04:33:21.931Z,99.99
2022-10-17T04:34:20.938Z,99.99
2022-10-17T04:35:21.969Z,99.99
2022-10-17T04:36:21.960Z,99.99
2022-10-17T04:37:21.981Z,99.99
2022-10-17T04:38:26.242Z,99.99
2022-10-17T04:39:22.031Z,99.99
2022-10-17T04:40:22.086Z,99.99
2022-10-17T04:41:22.064Z,99.99
2022-10-17T04:42:22.088Z,99.99
2022-10-17T04:43:22.105Z,99.99
2022-10-17T04:44:22.132Z,99.99
2022-10-17T04:45:22.184Z,99.99
2022-10-17T04:46:22.184Z,99.99
2022-10-17T04:47:22.210Z,99.99
2022-10-17T04:48:22.201Z,99.99
2022-10-17T04:49:22.216Z,99.99
2022-10-17T04:50:22.240Z,99.99
2022-10-17T04:51:24.600Z,99.99
2022-10-17T04:52:22.287Z,99.99
2022-10-17T04:53:22.278Z,99.99
2022-10-17T04:54:22.300Z,99.99
2022-10-17T04:55:22.340Z,99.99
2022-10-17T04:56:22.355Z,99.99
2022-10-17T04:57:22.395Z,99.99
2022-10-17T04:58:22.406Z,99.99
2022-10-17T04:59:22.438Z,99.99
2022-10-17T05:00:22.467Z,99.99
2022-10-17T05:01:22.551Z,99.99
2022-10-17T05:02:22.538Z,99.99
2022-10-17T05:03:22.545Z,99.99
2022-10-17T05:04:24.820Z,99.99
2022-10-17T05:05:22.605Z,99.99
2022-10-17T05:06:22.667Z,99.99
2022-10-17T05:07:22.652Z,99.99
2022-10-17T05:08:22.685Z,99.99
2022-10-17T05:09:22.661Z,99.99
2022-10-17T05:10:22.747Z,99.99
2022-10-17T05:11:22.810Z,99.99
2022-10-17T05:12:22.751Z,99.99
2022-10-17T05:13:22.790Z,99.99
2022-10-17T05:14:22.869Z,99.99
2022-10-17T05:15:22.881Z,99.99
2022-10-17T05:16:22.910Z,99.99
2022-10-17T05:17:22.950Z,99.99
2022-10-17T05:18:23.019Z,99.99
2022-10-17T05:19:22.950Z,99.99
2022-10-17T05:20:22.969Z,99.99
2022-10-17T05:21:23.070Z,99.99
2022-10-17T05:22:23.021Z,99.99
2022-10-17T05:23:23.062Z,99.99
2022-10-17T05:24:23.094Z,99.99
2022-10-17T05:25:23.121Z,99.99
2022-10-17T05:26:23.130Z,99.99
2022-10-17T05:27:23.147Z,99.99
2022-10-17T05:28:23.203Z,99.99
2022-10-17T05:29:23.188Z,99.99
2022-10-17T05:30:23.241Z,99.99
2022-10-17T05:31:23.230Z,99.99
2022-10-17T05:32:23.321Z,99.99
2022-10-17T05:33:23.296Z,99.99
2022-10-17T05:34:23.303Z,99.99
2022-10-17T05:35:23.365Z,99.99
2022-10-17T05:36:23.373Z,99.99
2022-10-17T05:37:23.363Z,99.99
2022-10-17T05:38:23.402Z,99.99
2022-10-17T05:39:23.406Z,99.99
2022-10-17T05:40:23.459Z,99.99
2022-10-17T05:41:23.441Z,99.99
2022-10-17T05:42:23.536Z,99.99
2022-10-17T05:43:23.483Z,99.99
2022-10-17T05:44:23.515Z,99.99
2022-10-17T05:45:23.553Z,99.99
2022-10-17T05:46:23.543Z,99.99
2022-10-17T05:47:23.564Z,99.99
2022-10-17T05:48:23.581Z,99.99
2022-10-17T05:49:33.235Z,99.99
2022-10-17T05:50:23.647Z,99.99
2022-10-17T05:51:23.651Z,99.99
2022-10-17T05:52:23.661Z,99.99
2022-10-17T05:53:23.671Z,99.99
2022-10-17T05:54:23.687Z,99.99
2022-10-17T05:55:23.699Z,99.99
2022-10-17T05:56:23.748Z,99.99
2022-10-17T05:57:23.727Z,99.99
2022-10-17T05:58:45.397Z,99.99
2022-10-17T05:59:23.818Z,99.99
2022-10-17T06:00:23.786Z,99.99
2022-10-17T06:01:23.808Z,99.99
2022-10-17T06:02:23.858Z,99.99
2022-10-17T06:03:23.842Z,99.99
2022-10-17T06:04:23.883Z,99.90
2022-10-17T06:05:23.890Z,99.99
2022-10-17T06:06:23.957Z,99.99
2022-10-17T06:07:23.969Z,99.99
2022-10-17T06:08:23.961Z,99.99
2022-10-17T06:09:23.975Z,99.99
2022-10-17T06:10:24.022Z,99.99
2022-10-17T06:11:24.008Z,99.99
2022-10-17T06:12:24.066Z,99.99
2022-10-17T06:13:24.063Z,99.99
2022-10-17T06:14:24.079Z,99.99
2022-10-17T06:15:24.112Z,99.99
2022-10-17T06:16:30.711Z,99.99
2022-10-17T06:17:24.176Z,99.99
2022-10-17T06:18:24.203Z,99.99
2022-10-17T06:19:24.214Z,99.99
2022-10-17T06:20:24.236Z,99.41
2022-10-17T06:21:24.258Z,99.05
2022-10-17T06:22:24.293Z,98.54
2022-10-17T06:23:24.301Z,98.08
2022-10-17T06:24:24.390Z,97.47
2022-10-17T06:25:24.348Z,97.27
2022-10-17T06:26:24.373Z,96.92
2022-10-17T06:27:24.407Z,96.51
2022-10-17T06:28:24.464Z,96.30
2022-10-17T06:29:24.419Z,95.64
2022-10-17T06:30:24.441Z,95.34
2022-10-17T06:31:24.482Z,95.03
2022-10-17T06:32:24.455Z,95.13
2022-10-17T06:33:24.465Z,95.44
2022-10-17T06:34:24.470Z,95.85
2022-10-17T06:35:24.508Z,96.41
2022-10-17T06:36:24.492Z,96.92
2022-10-17T06:37:24.508Z,97.22
2022-10-17T06:38:24.521Z,97.53
2022-10-17T06:39:24.541Z,97.83
2022-10-17T06:40:24.541Z,98.45
2022-10-17T06:41:24.572Z,98.86
2022-10-17T06:42:24.563Z,98.91
2022-10-17T06:43:27.738Z,99.02
2022-10-17T06:44:24.594Z,99.11
2022-10-17T06:45:24.606Z,99.11
2022-10-17T06:46:24.594Z,99.02
2022-10-17T06:47:24.610Z,99.07
2022-10-17T06:48:24.616Z,99.18
2022-10-17T06:49:24.640Z,99.27
2022-10-17T06:50:24.630Z,98.36
2022-10-17T06:51:24.648Z,97.00
2022-10-17T06:52:24.656Z,96.03
2022-10-17T06:53:24.652Z,94.56
2022-10-17T06:54:24.661Z,93.50
2022-10-17T06:55:24.703Z,92.68
2022-10-17T06:56:24.672Z,92.44
2022-10-17T06:57:24.694Z,92.33
2022-10-17T06:58:24.692Z,91.78
2022-10-17T06:59:24.712Z,91.17
2022-10-17T07:00:24.705Z,91.03
2022-10-17T07:01:24.718Z,90.72
2022-10-17T07:02:24.698Z,90.92
2022-10-17T07:03:24.697Z,90.92
2022-10-17T07:04:24.696Z,90.62
2022-10-17T07:05:24.707Z,90.42
2022-10-17T07:06:24.689Z,90.07
2022-10-17T07:07:24.695Z,89.66
2022-10-17T07:08:24.686Z,89.22
2022-10-17T07:09:24.673Z,88.91
2022-10-17T07:10:24.664Z,89.37
2022-10-17T07:11:24.673Z,88.97
2022-10-17T07:12:24.662Z,88.52
2022-10-17T07:13:24.642Z,88.58
2022-10-17T07:14:24.644Z,87.46
2022-10-17T07:15:24.617Z,86.91
2022-10-17T07:16:24.593Z,86.10
2022-10-17T07:17:24.577Z,85.80
2022-10-17T07:18:24.554Z,85.25
2022-10-17T07:19:24.540Z,84.75
2022-10-17T07:20:24.526Z,84.44
2022-10-17T07:21:24.494Z,84.61
2022-10-17T07:22:24.461Z,84.61
2022-10-17T07:23:24.451Z,85.01
2022-10-17T07:24:24.424Z,85.31
2022-10-17T07:25:24.395Z,85.68
2022-10-17T07:26:24.364Z,86.29
2022-10-17T07:27:24.338Z,86.39
2022-10-17T07:28:24.358Z,88.07
2022-10-17T07:29:24.302Z,85.10
2022-10-17T07:30:24.258Z,84.59
2022-10-17T07:31:24.351Z,84.14
2022-10-17T07:32:24.204Z,84.04
2022-10-17T07:33:24.181Z,84.00
2022-10-17T07:34:24.143Z,83.15
2022-10-17T07:35:24.227Z,82.28
2022-10-17T07:36:24.082Z,83.50
2022-10-17T07:37:24.059Z,83.60
2022-10-17T07:38:24.025Z,83.19
2022-10-17T07:39:23.994Z,83.40
2022-10-17T07:40:23.993Z,83.60
2022-10-17T07:41:23.936Z,83.29
2022-10-17T07:42:23.926Z,83.50
2022-10-17T07:43:23.904Z,84.77
2022-10-17T07:44:23.848Z,83.22
2022-10-17T07:45:23.812Z,82.51
2022-10-17T07:46:23.774Z,82.47
2022-10-17T07:47:23.747Z,81.82
2022-10-17T07:48:23.739Z,81.08
2022-10-17T07:49:23.679Z,79.33
2022-10-17T07:50:23.638Z,79.53
2022-10-17T07:51:23.597Z,78.89
2022-10-17T07:52:23.553Z,78.25
2022-10-17T07:53:23.534Z,78.01
2022-10-17T07:54:23.473Z,76.40
2022-10-17T07:55:23.431Z,76.67
2022-10-17T07:56:23.385Z,75.66
2022-10-17T07:57:23.348Z,75.42
2022-10-17T07:58:23.293Z,73.78
2022-10-17T07:59:23.255Z,73.78
2022-10-17T08:00:23.203Z,73.44
2022-10-17T08:01:23.154Z,72.71
2022-10-17T08:02:23.092Z,71.80
2022-10-17T08:03:23.052Z,71.56
2022-10-17T08:04:22.966Z,70.53
2022-10-17T08:05:22.913Z,69.79
2022-10-17T08:06:22.862Z,69.39
2022-10-17T08:07:26.877Z,69.59
2022-10-17T08:08:22.748Z,68.55
2022-10-17T08:09:22.687Z,68.69
2022-10-17T08:10:22.621Z,69.06
2022-10-17T08:11:22.577Z,68.42
2022-10-17T08:12:22.518Z,68.12
2022-10-17T08:13:22.428Z,67.72
2022-10-17T08:14:22.360Z,67.79
2022-10-17T08:15:22.285Z,67.99
2022-10-17T08:16:22.220Z,66.89
2022-10-17T08:17:22.153Z,67.09
2022-10-17T08:18:22.086Z,67.29
2022-10-17T08:19:21.996Z,68.19
2022-10-17T08:20:21.937Z,67.25
2022-10-17T08:21:21.843Z,66.49
2022-10-17T08:22:21.762Z,67.59
2022-10-17T08:23:21.682Z,66.66
2022-10-17T08:24:21.587Z,66.66
2022-10-17T08:25:21.498Z,66.93
2022-10-17T08:26:21.408Z,66.32
2022-10-17T08:27:21.322Z,65.49
2022-10-17T08:28:21.472Z,64.86
2022-10-17T08:29:21.143Z,63.93
2022-10-17T08:30:21.047Z,63.83
2022-10-17T08:31:20.961Z,63.96
2022-10-17T08:32:20.842Z,64.73
2022-10-17T08:33:20.768Z,64.13
2022-10-17T08:34:20.659Z,63.53
2022-10-17T08:35:20.554Z,63.63
2022-10-17T08:36:20.455Z,63.73
2022-10-17T08:37:20.371Z,63.80
2022-10-17T08:38:21.120Z,63.00
2022-10-17T08:39:20.144Z,62.18
2022-10-17T08:40:20.061Z,61.65
2022-10-17T08:41:19.934Z,61.41
2022-10-17T08:42:19.817Z,62.04
2022-10-17T08:43:19.756Z,62.20
2022-10-17T08:44:19.609Z,63.66
2022-10-17T08:45:19.483Z,64.63
2022-10-17T08:46:19.366Z,62.60
2022-10-17T08:47:19.238Z,62.34
2022-10-17T08:48:19.129Z,60.55
2022-10-17T08:49:19.015Z,61.11
2022-10-17T08:50:18.908Z,60.09
2022-10-17T08:51:18.764Z,59.96
2022-10-17T08:52:18.679Z,59.14
2022-10-17T08:53:18.524Z,58.34
2022-10-17T08:54:18.400Z,58.44
2022-10-17T08:56:19.944Z,59.04
2022-10-17T08:57:18.021Z,58.37
2022-10-17T08:58:17.889Z,58.72
2022-10-17T08:59:17.759Z,60.15
2022-10-17T09:00:17.638Z,60.52
2022-10-17T09:01:17.549Z,59.66
2022-10-17T09:02:17.412Z,58.74
2022-10-17T09:03:17.316Z,58.31
2022-10-17T09:04:17.244Z,58.61
2022-10-17T09:05:17.038Z,57.71
2022-10-17T09:06:16.912Z,58.18
2022-10-17T09:07:16.865Z,55.94
2022-10-17T09:08:16.668Z,56.44
2022-10-17T09:09:16.555Z,56.34
2022-10-17T09:10:16.425Z,55.55
2022-10-17T09:11:16.310Z,56.14
2022-10-17T09:12:16.212Z,55.77
2022-10-17T09:13:16.071Z,56.07
2022-10-17T09:14:15.947Z,55.65
2022-10-17T09:15:15.811Z,55.32
2022-10-17T09:16:15.700Z,55.00
2022-10-17T09:17:15.697Z,54.08
2022-10-17T09:18:17.575Z,54.17
2022-10-17T09:19:15.317Z,53.68
2022-10-17T09:20:15.188Z,54.57
2022-10-17T09:21:15.068Z,53.78
2022-10-17T09:22:14.937Z,52.86
2022-10-17T09:23:14.826Z,52.14
2022-10-17T09:24:16.151Z,51.50
2022-10-17T09:25:14.547Z,51.70
2022-10-17T09:26:14.417Z,51.20
2022-10-17T09:27:14.272Z,50.58
2022-10-17T09:28:14.138Z,50.06
2022-10-17T09:29:13.996Z,49.66
2022-10-17T09:30:27.046Z,49.96
2022-10-17T09:31:13.728Z,51.20
2022-10-17T09:32:13.586Z,50.83
2022-10-17T09:33:23.260Z,51.10
2022-10-17T09:34:13.347Z,51.10
2022-10-17T09:35:13.267Z,51.28
2022-10-17T09:36:13.041Z,50.68
2022-10-17T09:37:12.849Z,50.38
2022-10-17T09:38:12.712Z,50.68
2022-10-17T09:39:12.568Z,50.98
2022-10-17T09:40:12.416Z,49.96
2022-10-17T09:41:39.330Z,49.59
2022-10-17T09:42:12.115Z,50.06
2022-10-17T09:43:11.952Z,50.81
2022-10-17T09:44:11.779Z,51.00
2022-10-17T09:45:11.630Z,52.22
2022-10-17T09:46:11.451Z,51.10
2022-10-17T09:47:11.323Z,50.48
2022-10-17T09:48:11.132Z,49.96
2022-10-17T09:49:13.458Z,49.64
2022-10-17T09:50:10.846Z,49.52
2022-10-17T09:51:21.942Z,48.71
2022-10-17T09:52:10.499Z,47.81
2022-10-17T09:53:10.322Z,47.13
2022-10-17T09:54:10.177Z,47.69
2022-10-17T09:55:10.009Z,47.50
2022-10-17T09:56:09.851Z,46.88
2022-10-17T09:57:09.737Z,47.40
2022-10-17T09:58:09.563Z,47.42
2022-10-17T09:59:13.642Z,49.25
2022-10-17T10:00:09.288Z,49.64
2022-10-17T10:01:09.151Z,49.42
2022-10-17T10:02:08.928Z,50.21
2022-10-17T10:03:08.775Z,49.02
2022-10-17T10:04:08.598Z,48.93
2022-10-17T10:05:08.459Z,49.60
2022-10-17T10:06:08.286Z,48.43
2022-10-17T10:07:08.137Z,48.75
2022-10-17T10:08:07.995Z,49.72
2022-10-17T10:09:07.807Z,48.80
2022-10-17T10:10:07.644Z,48.49
2022-10-17T10:11:07.918Z,49.25
2022-10-17T10:12:07.316Z,46.66
2022-10-17T10:13:07.199Z,47.65
2022-10-17T10:14:06.975Z,47.00
2022-10-17T10:15:06.845Z,48.56
2022-10-17T10:16:06.641Z,47.38
2022-10-17T10:17:06.488Z,47.20
2022-10-17T10:18:06.307Z,47.97
2022-10-17T10:19:08.420Z,46.96
2022-10-17T10:20:05.980Z,46.37
2022-10-17T10:21:05.804Z,45.89
2022-10-17T10:22:05.638Z,46.88
2022-10-17T10:23:05.445Z,46.07
2022-10-17T10:24:05.303Z,46.47
2022-10-17T10:25:05.115Z,47.55
2022-10-17T10:26:04.978Z,46.07
2022-10-17T10:27:04.818Z,46.26
2022-10-17T10:28:04.631Z,44.89
2022-10-17T10:29:04.474Z,44.87
2022-10-17T10:30:04.283Z,44.35
2022-10-17T10:31:04.114Z,44.33
2022-10-17T10:32:03.969Z,43.54
2022-10-17T10:33:03.814Z,44.62
2022-10-17T10:34:03.622Z,43.27
2022-10-17T10:35:03.474Z,43.59
2022-10-17T10:36:03.318Z,43.78
2022-10-17T10:37:03.123Z,44.24
2022-10-17T10:38:02.972Z,45.86
2022-10-17T10:39:04.652Z,46.08
2022-10-17T10:40:02.736Z,46.60
2022-10-17T10:41:02.461Z,47.69
2022-10-17T10:42:02.316Z,47.27
2022-10-17T10:43:05.464Z,46.75
2022-10-17T10:44:01.947Z,46.53
2022-10-17T10:45:01.791Z,45.89
2022-10-17T10:46:01.641Z,44.51
2022-10-17T10:47:01.471Z,45.01
2022-10-17T10:48:01.301Z,43.41
2022-10-17T10:49:01.127Z,42.58
2022-10-17T10:50:00.973Z,42.38
2022-10-17T10:51:00.777Z,42.28
2022-10-17T10:52:00.647Z,41.96
2022-10-17T10:53:00.459Z,41.24
2022-10-17T10:54:00.259Z,41.14
2022-10-17T10:55:00.118Z,41.41
2022-10-17T10:55:59.926Z,43.03
2022-10-17T10:56:59.735Z,43.52
2022-10-17T10:57:59.585Z,42.82
2022-10-17T10:58:59.405Z,41.20
2022-10-17T10:59:59.244Z,41.27
2022-10-17T11:00:59.137Z,40.61
2022-10-17T11:01:58.924Z,41.49
2022-10-17T11:03:00.452Z,40.09
2022-10-17T11:03:58.599Z,40.33
2022-10-17T11:04:58.411Z,41.93
2022-10-17T11:05:58.220Z,42.50
2022-10-17T11:06:58.048Z,41.99
2022-10-17T11:07:57.934Z,41.77
2022-10-17T11:08:57.719Z,40.58
2022-10-17T11:09:57.544Z,40.88
2022-10-17T11:10:57.364Z,41.00
2022-10-17T11:11:57.185Z,42.50
2022-10-17T11:12:57.021Z,41.91
2022-10-17T11:13:56.861Z,42.50
2022-10-17T11:14:56.669Z,42.79
2022-10-17T11:15:56.523Z,42.20
2022-10-17T11:16:56.350Z,41.78
2022-10-17T11:17:56.179Z,41.12
2022-10-17T11:18:56.035Z,41.73
2022-10-17T11:19:55.908Z,43.21
2022-10-17T11:20:55.725Z,42.40
2022-10-17T11:21:55.553Z,41.22
2022-10-17T11:22:55.421Z,42.40
2022-10-17T11:23:55.243Z,41.57
2022-10-17T11:24:55.078Z,41.16
2022-10-17T11:25:54.943Z,39.97
2022-10-17T11:26:54.768Z,40.86
2022-10-17T11:27:54.612Z,40.39
2022-10-17T11:28:54.561Z,41.39
2022-10-17T11:29:54.328Z,41.09
2022-10-17T11:30:54.160Z,41.31
2022-10-17T11:31:53.973Z,41.71
2022-10-17T11:32:53.802Z,41.81
2022-10-17T11:33:53.656Z,40.88
2022-10-17T11:34:53.488Z,40.48
2022-10-17T11:35:53.379Z,41.49
2022-10-17T11:36:53.163Z,41.38
2022-10-17T11:37:53.001Z,40.78
2022-10-17T11:38:52.852Z,42.36
2022-10-17T11:39:52.694Z,41.86
2022-10-17T11:40:52.524Z,40.98
2022-10-17T11:41:55.135Z,41.96
2022-10-17T11:42:52.192Z,41.59
2022-10-17T11:43:52.027Z,41.78
2022-10-17T11:44:51.862Z,41.78
2022-10-17T11:45:51.846Z,41.17
2022-10-17T11:46:51.532Z,42.46
2022-10-17T11:47:51.373Z,41.39
2022-10-17T11:48:51.203Z,42.08
2022-10-17T11:49:51.580Z,42.38
2022-10-17T11:52:05.165Z,41.78
2022-10-17T11:52:56.537Z,41.89
2022-10-17T11:53:50.430Z,42.28
2022-10-17T11:54:50.270Z,42.16
2022-10-17T11:55:50.120Z,42.16
2022-10-17T11:56:49.984Z,41.55
2022-10-17T11:57:49.823Z,41.75
2022-10-17T11:58:49.649Z,41.14
2022-10-17T11:59:49.494Z,41.24
2022-10-17T12:00:49.814Z,40.55
2022-10-17T12:01:49.182Z,40.35
2022-10-17T12:02:49.045Z,39.76
2022-10-17T12:03:48.852Z,40.37
2022-10-17T12:04:49.822Z,40.88
2022-10-17T12:05:48.535Z,41.39
2022-10-17T12:06:48.364Z,41.51
2022-10-17T12:07:48.205Z,41.61
2022-10-17T12:08:48.022Z,41.49
2022-10-17T12:09:47.851Z,41.47
2022-10-17T12:10:47.684Z,40.17
2022-10-17T12:11:47.520Z,40.16
2022-10-17T12:12:47.359Z,39.95
2022-10-17T12:13:47.280Z,39.86
2022-10-17T12:14:47.021Z,39.94
2022-10-17T12:15:46.866Z,40.35
2022-10-17T12:16:53.175Z,40.35
2022-10-17T12:17:46.536Z,39.64
2022-10-17T12:18:46.374Z,40.01
2022-10-17T12:19:46.201Z,40.47
2022-10-17T12:20:46.048Z,39.86
2022-10-17T12:21:45.875Z,39.94
2022-10-17T12:22:45.691Z,38.85
2022-10-17T12:23:45.532Z,38.78
2022-10-17T12:24:45.377Z,40.27
2022-10-17T12:25:45.180Z,40.25
2022-10-17T12:26:44.995Z,39.74
2022-10-17T12:27:44.824Z,39.37
2022-10-17T12:28:44.696Z,39.95
2022-10-17T12:29:44.478Z,39.50
2022-10-17T12:30:44.319Z,40.01
2022-10-17T12:31:44.122Z,40.19
2022-10-17T12:33:03.877Z,40.00
2022-10-17T12:33:43.770Z,39.68
2022-10-17T12:35:43.435Z,38.39
2022-10-17T12:36:43.242Z,38.48
2022-10-17T12:37:43.089Z,38.39
2022-10-17T12:38:45.726Z,39.39
2022-10-17T12:39:42.733Z,39.09
2022-10-17T12:40:47.709Z,40.48
2022-10-17T12:41:42.386Z,40.29
2022-10-17T12:42:42.211Z,40.27
2022-10-17T12:43:44.706Z,39.19
2022-10-17T12:44:41.863Z,39.94
2022-10-17T12:45:41.714Z,40.96
2022-10-17T12:46:41.533Z,41.04
2022-10-17T12:47:41.352Z,40.33
2022-10-17T12:48:41.185Z,40.64
2022-10-17T12:49:41.023Z,41.14
2022-10-17T12:50:40.846Z,40.55
2022-10-17T12:51:40.717Z,40.74
2022-10-17T12:52:40.585Z,40.64
2022-10-17T12:53:40.347Z,40.80
2022-10-17T12:54:47.718Z,40.00
2022-10-17T12:55:40.025Z,39.39